createdAt,value
2023-10-26T00:01:56.737Z,99391.34
2023-10-26T00:03:59.082Z,99395.81
2023-10-26T00:06:00.737Z,99387.94
2023-10-26T00:08:02.337Z,99385.28
2023-10-26T00:10:04.749Z,99380.84
2023-10-26T00:12:06.480Z,99383.50
2023-10-26T00:14:08.114Z,99373.88
2023-10-26T00:16:09.760Z,99367.69
2023-10-26T00:18:12.780Z,99367.69
2023-10-26T00:20:14.613Z,99366.88
2023-10-26T00:22:16.369Z,99370.34
2023-10-26T00:24:18.125Z,99356.28
2023-10-26T00:26:19.818Z,99365.06
2023-10-26T00:28:21.583Z,99368.56
2023-10-26T00:30:23.374Z,99364.22
2023-10-26T00:32:25.169Z,99359.75
2023-10-26T00:34:27.089Z,99359.75
2023-10-26T00:36:28.617Z,99359.88
2023-10-26T00:38:30.138Z,99352.78
2023-10-26T00:40:31.565Z,99354.56
2023-10-26T00:42:33.158Z,99346.63
2023-10-26T00:44:34.692Z,99347.59
2023-10-26T00:46:36.552Z,99339.63
2023-10-26T00:48:38.764Z,99340.59
2023-10-26T00:50:41.977Z,99340.50
2023-10-26T00:52:43.704Z,99350.25
2023-10-26T00:54:46.339Z,99343.25
2023-10-26T00:56:49.111Z,99341.47
2023-10-26T00:58:50.662Z,99344.09
2023-10-26T01:00:52.300Z,99335.28
2023-10-26T01:02:54.668Z,99339.75
2023-10-26T01:04:56.405Z,99339.75
2023-10-26T01:06:58.164Z,99332.78
2023-10-26T01:08:59.723Z,99334.47
2023-10-26T01:11:02.382Z,99332.78
2023-10-26T01:13:05.404Z,99324.94
2023-10-26T01:15:07.777Z,99324.94
2023-10-26T01:17:09.356Z,99324.13
2023-10-26T01:19:10.936Z,99320.47
2023-10-26T01:21:12.660Z,99328.44
2023-10-26T01:23:14.324Z,99329.44
2023-10-26T01:29:28.805Z,99327.72
2023-10-26T01:31:30.386Z,99320.75
2023-10-26T01:33:32.198Z,99321.56
2023-10-26T01:35:42.058Z,99314.47
2023-10-26T01:37:43.819Z,99321.56
2023-10-26T01:39:45.446Z,99316.41
2023-10-26T01:41:50.051Z,99317.22
2023-10-26T01:43:51.581Z,99311.09
2023-10-26T01:45:53.265Z,99312.91
2023-10-26T01:47:55.849Z,99309.41
2023-10-26T01:49:57.513Z,99308.59
2023-10-26T01:51:59.486Z,99305.94
2023-10-26T01:54:01.015Z,99304.09
2023-10-26T01:56:02.803Z,99309.53
2023-10-26T01:58:04.311Z,99309.53
2023-10-26T02:00:06.385Z,99303.28
2023-10-26T02:02:07.965Z,99298.94
2023-10-26T02:04:09.443Z,99306.91
2023-10-26T02:06:11.071Z,99296.41
2023-10-26T02:08:12.900Z,99286.66
2023-10-26T02:10:15.287Z,99291.13
2023-10-26T02:12:17.005Z,99275.31
2023-10-26T02:14:19.151Z,99277.97
2023-10-26T02:16:21.548Z,99272.66
2023-10-26T02:18:23.170Z,99269.06
2023-10-26T02:20:24.733Z,99262.06
2023-10-26T02:22:26.198Z,99250.66
2023-10-26T02:24:28.491Z,99251.59
2023-10-26T02:26:30.095Z,99256.06
2023-10-26T02:28:31.672Z,99259.56
2023-10-26T02:30:33.214Z,99250.66
2023-10-26T02:32:35.209Z,99254.25
2023-10-26T02:34:36.716Z,99253.44
2023-10-26T02:36:38.276Z,99248.97
2023-10-26T02:38:39.802Z,99249.09
2023-10-26T02:40:41.534Z,99241.97
2023-10-26T02:42:43.269Z,99236.66
2023-10-26T02:44:45.669Z,99239.31
2023-10-26T02:46:47.372Z,99232.31
2023-10-26T02:50:55.284Z,99229.69
2023-10-26T02:52:56.931Z,99226.06
2023-10-26T02:54:58.388Z,99224.38
2023-10-26T02:57:00.061Z,99219.94
2023-10-26T02:59:01.694Z,99216.44
2023-10-26T03:01:03.270Z,99215.59
2023-10-26T03:03:04.934Z,99204.03
2023-10-26T03:05:06.670Z,99193.53
2023-10-26T03:07:10.690Z,99191.75
2023-10-26T03:09:14.636Z,99187.41
2023-10-26T03:11:16.406Z,99185.59
2023-10-26T03:13:17.882Z,99175.00
2023-10-26T03:15:19.804Z,99174.16
2023-10-26T03:17:21.383Z,99176.00
2023-10-26T03:19:23.078Z,99175.00
2023-10-26T03:21:24.862Z,99171.06
2023-10-26T03:23:26.361Z,99169.69
2023-10-26T03:25:28.037Z,99168.03
2023-10-26T03:27:29.599Z,99172.47
2023-10-26T03:29:31.122Z,99162.75
2023-10-26T03:31:34.707Z,99160.19
2023-10-26T03:33:36.246Z,99157.44
2023-10-26T03:35:37.852Z,99149.59
2023-10-26T03:37:39.399Z,99148.63
2023-10-26T03:39:40.882Z,99143.47
2023-10-26T03:41:43.609Z,99151.28
2023-10-26T03:43:45.147Z,99146.94
2023-10-26T03:45:46.809Z,99139.13
2023-10-26T03:47:48.334Z,99154.91
2023-10-26T03:49:53.334Z,99146.94
2023-10-26T03:51:55.332Z,99159.22
2023-10-26T03:53:56.903Z,99152.25
2023-10-26T03:55:58.718Z,99147.91
2023-10-26T03:58:00.183Z,99147.91
2023-10-26T04:00:02.154Z,99146.13
2023-10-26T04:02:04.387Z,99145.25
2023-10-26T04:04:06.172Z,99149.59
2023-10-26T04:06:07.703Z,99139.13
2023-10-26T04:08:10.755Z,99133.84
2023-10-26T04:10:12.194Z,99131.19
2023-10-26T04:12:14.579Z,99125.88
2023-10-26T04:14:16.646Z,99127.72
2023-10-26T04:16:18.221Z,99135.66
2023-10-26T04:18:19.958Z,99141.66
2023-10-26T04:22:30.838Z,99130.34
2023-10-26T04:24:33.012Z,99130.34
2023-10-26T04:26:34.625Z,99127.72
2023-10-26T04:32:56.532Z,99120.59
2023-10-26T04:37:04.798Z,99113.59
2023-10-26T04:39:06.418Z,99111.91
2023-10-26T04:41:07.895Z,99101.31
2023-10-26T04:43:10.119Z,99105.66
2023-10-26T04:45:11.735Z,99106.63
2023-10-26T04:47:13.352Z,99092.41
2023-10-26T04:49:14.811Z,99107.47
2023-10-26T04:51:16.493Z,99106.63
2023-10-26T04:53:18.087Z,99092.41
2023-10-26T04:55:19.793Z,99096.88
2023-10-26T04:59:31.129Z,99087.25
2023-10-26T05:01:32.780Z,99090.72
2023-10-26T05:03:34.383Z,99096.00
2023-10-26T05:05:35.956Z,99099.53
2023-10-26T05:07:37.570Z,99065.50
2023-10-26T05:09:39.262Z,99084.59
2023-10-26T05:11:40.877Z,99080.13
2023-10-26T05:13:42.454Z,99083.75
2023-10-26T05:15:45.260Z,99071.34
2023-10-26T05:17:46.871Z,99072.31
2023-10-26T05:19:48.591Z,99066.03
2023-10-26T05:23:56.663Z,99056.41
2023-10-26T05:25:58.254Z,99054.63
2023-10-26T05:28:01.195Z,99054.63
2023-10-26T05:30:03.775Z,99053.63
2023-10-26T05:32:21.601Z,99059.91
2023-10-26T05:36:47.089Z,99034.03
2023-10-26T05:38:48.524Z,99051.97
2023-10-26T05:40:50.726Z,99049.31
2023-10-26T05:42:53.075Z,99053.75
2023-10-26T05:44:58.023Z,99047.50
2023-10-26T05:47:00.683Z,99039.69
2023-10-26T05:49:02.404Z,99039.69
2023-10-26T05:51:04.293Z,99045.00
2023-10-26T05:53:05.897Z,99049.31
2023-10-26T05:55:07.668Z,99050.28
2023-10-26T05:57:09.221Z,99052.94
2023-10-26T05:59:10.749Z,99056.41
2023-10-26T06:01:12.406Z,99062.56
2023-10-26T06:03:14.010Z,99067.88
2023-10-26T06:05:15.650Z,99064.34
2023-10-26T06:07:17.270Z,99067.88
2023-10-26T06:09:18.998Z,99067.88
2023-10-26T06:11:20.675Z,99067.88
2023-10-26T06:13:22.144Z,99086.41
2023-10-26T06:15:24.087Z,99097.84
2023-10-26T06:17:25.601Z,99103.97
2023-10-26T06:19:27.089Z,99096.00
2023-10-26T06:21:28.702Z,99097.00
2023-10-26T06:23:30.377Z,99095.31
2023-10-26T06:25:35.699Z,99104.97
2023-10-26T06:27:37.471Z,99099.66
2023-10-26T06:29:39.028Z,99097.00
2023-10-26T06:31:40.672Z,99103.28
2023-10-26T06:33:42.487Z,99097.97
2023-10-26T06:35:44.092Z,99107.59
2023-10-26T06:37:46.824Z,99108.56
2023-10-26T06:39:48.462Z,99115.66
2023-10-26T06:41:49.995Z,99125.28
2023-10-26T06:43:52.790Z,99113.88
2023-10-26T06:45:54.315Z,99119.16
2023-10-26T06:47:55.834Z,99125.28
2023-10-26T06:49:57.422Z,99123.59
2023-10-26T06:51:58.999Z,99126.25
2023-10-26T06:54:00.663Z,99139.50
2023-10-26T06:56:02.310Z,99145.66
2023-10-26T06:58:04.396Z,99138.53
2023-10-26T07:00:07.807Z,99143.00
2023-10-26T07:02:11.927Z,99150.09
2023-10-26T07:04:13.984Z,99151.78
2023-10-26T07:06:15.860Z,99150.97
2023-10-26T07:08:18.128Z,99153.59
2023-10-26T07:10:22.575Z,99161.56
2023-10-26T07:12:26.943Z,99168.63
2023-10-26T07:14:28.452Z,99161.56
2023-10-26T07:16:30.995Z,99172.16
2023-10-26T07:18:32.759Z,99177.44
2023-10-26T07:20:34.434Z,99171.28
2023-10-26T07:22:36.503Z,99167.72
2023-10-26T07:24:38.190Z,99196.81
2023-10-26T07:26:39.831Z,99198.66
2023-10-26T07:28:41.429Z,99199.47
2023-10-26T07:30:43.729Z,99195.03
2023-10-26T07:32:45.418Z,99202.97
2023-10-26T07:34:47.248Z,99204.78
2023-10-26T07:36:49.135Z,99214.41
2023-10-26T07:39:46.735Z,99214.41
2023-10-26T07:41:12.136Z,99200.34
2023-10-26T07:43:17.319Z,99210.94
2023-10-26T07:45:18.978Z,99209.25
2023-10-26T07:47:20.537Z,99214.41
2023-10-26T07:49:22.079Z,99223.91
2023-10-26T07:51:23.680Z,99233.28
2023-10-26T07:53:25.410Z,99229.44
2023-10-26T07:55:26.922Z,99246.06
2023-10-26T07:57:28.426Z,99240.63
2023-10-26T07:59:32.836Z,99244.13
2023-10-26T08:01:34.453Z,99233.53
2023-10-26T08:03:36.343Z,99243.16
2023-10-26T08:07:46.869Z,99243.16
2023-10-26T08:09:48.977Z,99249.19
2023-10-26T08:11:50.754Z,99256.28
2023-10-26T08:13:53.185Z,99256.28
2023-10-26T08:16:05.978Z,99261.72
2023-10-26T08:18:16.628Z,99266.28
2023-10-26T08:20:18.373Z,99272.56
2023-10-26T08:22:21.454Z,99280.75
2023-10-26T08:24:22.944Z,99285.22
2023-10-26T08:26:24.385Z,99282.56
2023-10-26T08:30:32.416Z,99276.41
2023-10-26T08:32:34.172Z,99275.59
2023-10-26T08:36:47.782Z,99269.56
2023-10-26T08:38:52.818Z,99258.00
2023-10-26T08:40:55.112Z,99274.03
2023-10-26T08:42:57.197Z,99273.03
2023-10-26T08:45:00.417Z,99267.88
2023-10-26T08:47:05.473Z,99264.25
2023-10-26T08:49:07.749Z,99287.28
2023-10-26T08:51:09.557Z,99287.28
2023-10-26T08:53:11.183Z,99273.16
2023-10-26T08:55:12.790Z,99280.38
2023-10-26T09:03:22.977Z,99296.28
2023-10-26T09:05:24.813Z,99301.56
2023-10-26T09:07:27.246Z,99295.44
2023-10-26T09:09:28.785Z,99294.50
2023-10-26T09:11:31.212Z,99293.63
2023-10-26T09:13:33.747Z,99300.63
2023-10-26T09:15:48.966Z,99301.47
2023-10-26T09:17:50.507Z,99297.88
2023-10-26T09:19:52.064Z,99292.56
2023-10-26T09:21:53.974Z,99291.84
2023-10-26T09:23:55.572Z,99302.31
2023-10-26T09:26:08.908Z,99313.75
2023-10-26T09:28:10.683Z,99325.19
2023-10-26T09:30:29.371Z,99321.72
2023-10-26T09:32:34.512Z,99316.41
2023-10-26T09:34:41.245Z,99315.44
2023-10-26T09:36:42.841Z,99316.41
2023-10-26T09:38:45.157Z,99313.88
2023-10-26T09:40:47.163Z,99320.97
2023-10-26T09:42:49.672Z,99332.41
2023-10-26T09:44:51.644Z,99336.03
2023-10-26T09:46:53.267Z,99331.59
2023-10-26T09:48:54.894Z,99342.91
2023-10-26T09:51:02.035Z,99338.44
2023-10-26T09:53:03.786Z,99335.06
2023-10-26T09:55:07.862Z,99332.41
2023-10-26T09:57:18.405Z,99327.03
2023-10-26T09:59:20.238Z,99321.72
2023-10-26T10:01:38.507Z,99315.44
2023-10-26T10:03:46.632Z,99307.47
2023-10-26T10:05:48.757Z,99303.03
2023-10-26T10:07:50.396Z,99296.88
2023-10-26T10:10:07.042Z,99291.59
2023-10-26T10:12:14.967Z,99295.09
2023-10-26T10:14:42.556Z,99301.13
2023-10-26T10:16:49.909Z,99308.22
2023-10-26T10:19:10.931Z,99307.25
2023-10-26T10:21:31.189Z,99299.06
2023-10-26T10:23:37.670Z,99291.81
2023-10-26T10:25:51.551Z,99308.44
2023-10-26T10:27:53.453Z,99311.84
2023-10-26T10:29:56.706Z,99304.38
2023-10-26T10:31:58.426Z,99317.84
2023-10-26T10:34:01.945Z,99315.19
2023-10-26T10:36:04.903Z,99318.69
2023-10-26T10:38:12.187Z,99316.88
2023-10-26T10:40:14.993Z,99327.47
2023-10-26T10:42:16.617Z,99326.50
2023-10-26T10:44:18.418Z,99326.78
2023-10-26T10:46:27.146Z,99332.16
2023-10-26T10:48:28.858Z,99334.81
2023-10-26T10:50:31.205Z,99333.72
2023-10-26T10:52:32.797Z,99332.78
2023-10-26T10:54:45.107Z,99329.28
2023-10-26T10:56:55.196Z,99331.94
2023-10-26T10:58:57.743Z,99330.97
2023-10-26T11:00:59.249Z,99324.13
2023-10-26T11:03:00.892Z,99332.16
2023-10-26T11:05:15.816Z,99327.00
2023-10-26T11:07:24.240Z,99318.31
2023-10-26T11:09:30.394Z,99318.31
2023-10-26T11:11:32.881Z,99308.59
2023-10-26T11:13:34.873Z,99312.06
2023-10-26T11:15:37.561Z,99317.38
2023-10-26T11:17:40.578Z,99315.31
2023-10-26T11:19:42.146Z,99307.22
2023-10-26T11:21:43.697Z,99305.31
2023-10-26T11:23:50.155Z,99306.28
2023-10-26T11:25:51.763Z,99294.59
2023-10-26T11:27:53.325Z,99297.38
2023-10-26T11:30:02.506Z,99299.41
2023-10-26T11:32:04.413Z,99302.75
2023-10-26T11:34:09.459Z,99305.19
2023-10-26T11:36:12.018Z,99306.13
2023-10-26T11:38:13.831Z,99308.97
2023-10-26T11:40:16.888Z,99301.13
2023-10-26T11:42:18.445Z,99292.66
2023-10-26T11:44:26.863Z,99281.81
2023-10-26T11:46:29.112Z,99276.50
2023-10-26T11:48:32.624Z,99276.72
2023-10-26T11:50:37.661Z,99263.75
2023-10-26T11:52:39.407Z,99259.63
2023-10-26T11:54:51.660Z,99268.16
2023-10-26T11:56:53.308Z,99260.78
2023-10-26T11:58:55.021Z,99265.00
2023-10-26T12:00:56.555Z,99266.44
2023-10-26T12:02:58.948Z,99256.50
2023-10-26T12:05:00.695Z,99257.22
2023-10-26T12:07:02.361Z,99255.88
2023-10-26T12:09:05.925Z,99263.31
2023-10-26T12:11:07.524Z,99253.22
2023-10-26T12:13:09.080Z,99253.16
2023-10-26T12:15:12.789Z,99249.97
2023-10-26T12:17:14.476Z,99246.22
2023-10-26T12:19:15.994Z,99250.88
2023-10-26T12:21:17.988Z,99244.31
2023-10-26T12:23:19.482Z,99251.56
2023-10-26T12:25:21.038Z,99248.91
2023-10-26T12:27:24.626Z,99248.59
2023-10-26T12:29:26.337Z,99254.44
2023-10-26T12:31:28.031Z,99247.16
2023-10-26T12:33:29.925Z,99233.44
2023-10-26T12:35:31.398Z,99231.63
2023-10-26T12:37:33.029Z,99236.09
2023-10-26T12:39:34.838Z,99238.88
2023-10-26T12:41:36.365Z,99234.56
2023-10-26T12:43:37.861Z,99221.28
2023-10-26T12:45:40.584Z,99224.50
2023-10-26T12:47:42.241Z,99223.41
2023-10-26T12:49:44.121Z,99223.50
2023-10-26T12:51:46.160Z,99219.31
2023-10-26T12:53:47.655Z,99218.09
2023-10-26T12:55:49.473Z,99222.28
2023-10-26T12:57:52.094Z,99216.09
2023-10-26T12:59:53.961Z,99219.47
2023-10-26T13:01:55.502Z,99221.16
2023-10-26T13:03:59.206Z,99214.72
2023-10-26T13:06:01.073Z,99207.41
2023-10-26T13:08:02.675Z,99218.03
2023-10-26T13:10:04.617Z,99217.47
2023-10-26T13:12:06.147Z,99215.94
2023-10-26T13:14:08.381Z,99210.19
2023-10-26T13:16:10.576Z,99214.00
2023-10-26T13:18:12.444Z,99209.16
2023-10-26T13:20:14.077Z,99197.50
2023-10-26T13:22:15.553Z,99188.19
2023-10-26T13:24:17.341Z,99187.91
2023-10-26T13:26:18.984Z,99195.47
2023-10-26T13:28:20.622Z,99183.19
2023-10-26T13:30:22.163Z,99175.66
2023-10-26T13:32:23.779Z,99170.88
2023-10-26T13:34:25.271Z,99173.78
2023-10-26T13:36:27.171Z,99170.03
2023-10-26T13:38:28.663Z,99163.19
2023-10-26T13:40:30.218Z,99165.28
2023-10-26T13:42:34.727Z,99169.47
2023-10-26T13:44:36.290Z,99159.66
2023-10-26T13:46:39.082Z,99157.97
2023-10-26T13:48:40.715Z,99151.38
2023-10-26T13:50:44.270Z,99157.09
2023-10-26T13:52:46.826Z,99159.75
2023-10-26T13:54:48.546Z,99168.59
2023-10-26T13:56:50.282Z,99157.09
2023-10-26T13:58:51.838Z,99153.75
2023-10-26T14:00:54.689Z,99136.69
2023-10-26T14:02:56.579Z,99151.09
2023-10-26T14:04:58.094Z,99143.72
2023-10-26T14:06:59.676Z,99141.22
2023-10-26T14:09:01.708Z,99147.09
2023-10-26T14:11:04.402Z,99140.13
2023-10-26T14:13:06.258Z,99134.50
2023-10-26T14:15:08.061Z,99133.53
2023-10-26T14:17:09.557Z,99129.66
2023-10-26T14:19:11.213Z,99135.66
2023-10-26T14:21:12.802Z,99132.72
2023-10-26T14:23:14.553Z,99132.16
2023-10-26T14:25:16.118Z,99131.44
2023-10-26T14:27:17.816Z,99125.97
2023-10-26T14:29:19.302Z,99116.78
2023-10-26T14:31:20.998Z,99121.69
2023-10-26T14:33:22.856Z,99120.97
2023-10-26T14:35:24.700Z,99114.94
2023-10-26T14:37:26.212Z,99121.78
2023-10-26T14:39:28.304Z,99125.88
2023-10-26T14:41:29.796Z,99123.47
2023-10-26T14:43:31.288Z,99114.13
2023-10-26T14:45:36.042Z,99109.91
2023-10-26T14:47:37.692Z,99111.44
2023-10-26T14:49:39.480Z,99115.66
2023-10-26T14:51:45.936Z,99112.41
2023-10-26T14:53:48.152Z,99108.78
2023-10-26T14:55:49.622Z,99101.06
2023-10-26T14:57:51.251Z,99110.31
2023-10-26T14:59:53.459Z,99104.34
2023-10-26T15:01:54.950Z,99089.75
2023-10-26T15:03:56.941Z,99082.06
2023-10-26T15:06:01.831Z,99075.09
2023-10-26T15:08:06.516Z,99080.91
2023-10-26T15:10:22.573Z,99079.13
2023-10-26T15:12:27.888Z,99079.38
2023-10-26T15:14:29.394Z,99075.50
2023-10-26T15:16:32.149Z,99062.19
2023-10-26T15:18:34.039Z,99069.16
2023-10-26T15:20:36.145Z,99062.75
2023-10-26T15:22:40.225Z,99064.53
2023-10-26T15:24:41.912Z,99062.59
2023-10-26T15:26:43.481Z,99054.19
2023-10-26T15:28:45.150Z,99051.41
2023-10-26T15:30:46.856Z,99049.69
2023-10-26T15:34:54.899Z,99047.44
2023-10-26T15:36:59.421Z,99053.75
2023-10-26T15:39:01.132Z,99043.78
2023-10-26T15:41:06.252Z,99047.44
2023-10-26T15:43:07.813Z,99046.47
2023-10-26T15:45:09.605Z,99043.69
2023-10-26T15:47:11.218Z,99041.72
2023-10-26T15:49:30.678Z,99039.06
2023-10-26T15:51:34.570Z,99025.38
2023-10-26T15:53:36.098Z,99028.19
2023-10-26T15:55:37.717Z,99023.09
2023-10-26T15:57:39.316Z,99022.69
2023-10-26T15:59:40.905Z,99025.88
2023-10-26T16:01:43.728Z,99021.13
2023-10-26T16:03:45.660Z,99024.59
2023-10-26T16:05:47.188Z,99022.09
2023-10-26T16:07:48.823Z,99009.53
2023-10-26T16:09:50.340Z,99011.75
2023-10-26T16:11:51.948Z,99010.53
2023-10-26T16:13:53.479Z,99005.47
2023-10-26T16:15:55.078Z,98999.31
2023-10-26T16:17:56.837Z,99008.44
2023-10-26T16:19:59.010Z,98999.75
2023-10-26T16:22:00.485Z,99008.28
2023-10-26T16:24:02.079Z,99000.44
2023-10-26T16:26:03.755Z,99000.38
2023-10-26T16:28:05.386Z,99005.91
2023-10-26T16:30:07.340Z,99003.16
2023-10-26T16:32:08.884Z,98999.69
2023-10-26T16:34:10.635Z,99005.88
2023-10-26T16:36:12.326Z,99002.97
2023-10-26T16:38:13.914Z,99008.59
2023-10-26T16:40:17.010Z,99010.94
2023-10-26T16:42:18.503Z,99008.28
2023-10-26T16:44:23.517Z,99006.59
2023-10-26T16:46:25.134Z,99007.56
2023-10-26T16:48:27.540Z,98998.63
2023-10-26T16:50:29.364Z,99001.13
2023-10-26T16:52:31.641Z,98991.75
2023-10-26T16:54:33.312Z,98988.84
2023-10-26T16:56:34.856Z,99001.56
2023-10-26T16:58:36.343Z,98998.22
2023-10-26T17:00:37.868Z,98992.19
2023-10-26T17:02:39.358Z,98994.28
2023-10-26T17:04:42.492Z,98990.09
2023-10-26T17:06:44.043Z,98998.78
2023-10-26T17:08:45.894Z,98995.19
2023-10-26T17:10:49.350Z,98994.72
2023-10-26T17:12:51.011Z,98989.38
2023-10-26T17:14:52.512Z,98997.50
2023-10-26T17:16:54.255Z,98985.91
2023-10-26T17:18:57.341Z,98991.91
2023-10-26T17:20:59.035Z,98987.16
2023-10-26T17:23:00.539Z,98982.81
2023-10-26T17:25:02.730Z,98979.59
2023-10-26T17:27:04.729Z,98983.09
2023-10-26T17:29:06.344Z,98973.31
2023-10-26T17:31:07.930Z,98976.09
2023-10-26T17:33:12.813Z,98970.75
2023-10-26T17:35:15.875Z,98969.69
2023-10-26T17:37:18.584Z,98968.44
2023-10-26T17:39:20.783Z,98968.44
2023-10-26T17:41:22.293Z,98971.66
2023-10-26T17:43:24.089Z,98962.53
2023-10-26T17:45:26.583Z,98960.72
2023-10-26T17:47:29.015Z,98966.50
2023-10-26T17:49:30.550Z,98961.47
2023-10-26T17:51:33.936Z,98956.03
2023-10-26T17:53:35.837Z,98948.88
2023-10-26T17:55:37.687Z,98949.34
2023-10-26T17:57:39.369Z,98947.94
2023-10-26T17:59:40.859Z,98950.03
2023-10-26T18:01:42.444Z,98944.03
2023-10-26T18:03:44.043Z,98947.69
2023-10-26T18:05:46.160Z,98947.81
2023-10-26T18:07:47.668Z,98940.38
2023-10-26T18:09:49.402Z,98939.94
2023-10-26T18:11:50.989Z,98936.47
2023-10-26T18:13:52.502Z,98941.50
2023-10-26T18:15:55.158Z,98935.78
2023-10-26T18:17:57.363Z,98933.53
2023-10-26T18:19:58.874Z,98927.66
2023-10-26T18:24:07.917Z,98928.38
2023-10-26T18:26:10.372Z,98922.50
2023-10-26T18:28:12.465Z,98922.78
2023-10-26T18:30:14.539Z,98918.59
2023-10-26T18:32:16.760Z,98916.09
2023-10-26T18:34:19.403Z,98914.56
2023-10-26T18:36:22.119Z,98915.53
2023-10-26T18:38:23.781Z,98914.97
2023-10-26T18:40:25.297Z,98910.78
2023-10-26T18:42:26.833Z,98902.97
2023-10-26T18:44:28.642Z,98908.38
2023-10-26T18:48:37.452Z,98895.53
2023-10-26T18:50:39.122Z,98891.19
2023-10-26T18:52:40.804Z,98888.66
2023-10-26T18:54:42.404Z,98886.16
2023-10-26T18:56:44.055Z,98884.47
2023-10-26T18:58:45.609Z,98871.34
2023-10-26T19:00:47.834Z,98878.59
2023-10-26T19:02:49.396Z,98871.63
2023-10-26T19:04:50.900Z,98872.72
2023-10-26T19:06:53.063Z,98864.91
2023-10-26T19:13:03.966Z,98859.19
2023-10-26T19:15:05.813Z,98850.53
2023-10-26T19:17:07.499Z,98855.13
2023-10-26T19:19:09.291Z,98858.63
2023-10-26T19:25:22.002Z,98853.75
2023-10-26T19:27:23.715Z,98861.69
2023-10-26T19:29:25.383Z,98853.88
2023-10-26T19:33:33.450Z,98860.31
2023-10-26T19:35:35.572Z,98863.09
2023-10-26T19:37:37.097Z,98863.22
2023-10-26T19:39:38.564Z,98859.75
2023-10-26T19:41:40.038Z,98862.53
2023-10-26T19:43:41.486Z,98865.31
2023-10-26T19:47:44.656Z,98873.56
2023-10-26T19:49:46.894Z,98865.72
2023-10-26T19:51:48.451Z,98859.59
2023-10-26T19:53:51.268Z,98863.22
2023-10-26T19:55:54.162Z,98859.75
2023-10-26T19:57:55.753Z,98863.38
2023-10-26T19:59:57.360Z,98859.88
2023-10-26T20:01:59.010Z,98858.22
2023-10-26T20:04:01.270Z,98859.03
2023-10-26T20:06:05.219Z,98852.06
2023-10-26T20:08:11.391Z,98851.22
2023-10-26T20:10:12.904Z,98850.38
2023-10-26T20:12:14.416Z,98855.69
2023-10-26T20:14:16.804Z,98852.19
2023-10-26T20:16:18.550Z,98849.53
2023-10-26T20:18:20.089Z,98841.59
2023-10-26T20:20:22.724Z,98845.22
2023-10-26T20:22:25.298Z,98850.66
2023-10-26T20:24:28.383Z,98849.81
2023-10-26T20:26:30.033Z,98848.97
2023-10-26T20:28:31.788Z,98849.13
2023-10-26T20:30:33.536Z,98845.63
2023-10-26T20:32:35.763Z,98843.81
2023-10-26T20:34:37.577Z,98842.25
2023-10-26T20:36:39.053Z,98846.59
2023-10-26T20:38:40.806Z,98845.75
2023-10-26T20:40:42.431Z,98845.75
2023-10-26T20:42:44.228Z,98850.22
2023-10-26T20:44:45.975Z,98845.06
2023-10-26T20:46:47.692Z,98845.06
2023-10-26T20:48:49.346Z,98849.53
2023-10-26T20:50:51.492Z,98853.00
2023-10-26T20:52:53.104Z,98855.81
2023-10-26T20:54:54.764Z,98852.31
2023-10-26T20:56:56.317Z,98851.47
2023-10-26T20:58:58.118Z,98850.66
2023-10-26T21:01:03.145Z,98862.09
2023-10-26T21:03:04.656Z,98858.59
2023-10-26T21:05:06.331Z,98856.94
2023-10-26T21:07:08.880Z,98852.59
2023-10-26T21:09:10.515Z,98855.25
2023-10-26T21:11:16.150Z,98847.28
2023-10-26T21:13:18.467Z,98845.59
2023-10-26T21:15:21.557Z,98850.91
2023-10-26T21:17:24.169Z,98856.22
2023-10-26T21:19:25.950Z,98856.34
2023-10-26T21:21:27.459Z,98853.72
2023-10-26T21:23:28.965Z,98856.34
2023-10-26T21:25:34.580Z,98857.34
2023-10-26T21:27:36.616Z,98854.69
2023-10-26T21:29:38.442Z,98854.81
2023-10-26T21:31:39.987Z,98853.00
2023-10-26T21:33:41.513Z,98853.97
2023-10-26T21:35:43.149Z,98854.81
2023-10-26T21:37:44.655Z,98848.81
2023-10-26T21:39:46.595Z,98849.78
2023-10-26T21:41:48.364Z,98848.94
2023-10-26T21:43:49.916Z,98848.09
2023-10-26T21:45:51.411Z,98846.41
2023-10-26T21:47:52.985Z,98845.44
2023-10-26T21:49:54.742Z,98840.28
2023-10-26T21:51:56.379Z,98837.63
2023-10-26T21:53:58.311Z,98835.94
2023-10-26T21:55:59.842Z,98846.56
2023-10-26T21:58:01.719Z,98854.50
2023-10-26T22:00:06.760Z,98856.34
2023-10-26T22:02:08.876Z,98855.47
2023-10-26T22:04:21.549Z,98857.31
2023-10-26T22:06:25.102Z,98857.31
2023-10-26T22:08:26.605Z,98852.16
2023-10-26T22:10:28.205Z,98858.28
2023-10-26T22:12:29.945Z,98854.81
2023-10-26T22:14:34.853Z,98855.78
2023-10-26T22:16:36.287Z,98853.13
2023-10-26T22:18:37.916Z,98854.91
2023-10-26T22:20:40.161Z,98857.56
2023-10-26T22:22:41.744Z,98855.06
2023-10-26T22:24:43.217Z,98860.38
2023-10-26T22:26:44.720Z,98863.84
2023-10-26T22:28:46.580Z,98858.69
2023-10-26T22:30:48.152Z,98857.00
2023-10-26T22:32:49.969Z,98863.16
2023-10-26T22:34:52.054Z,98866.78
2023-10-26T22:36:54.779Z,98871.25
2023-10-26T22:38:57.025Z,98871.25
2023-10-26T22:40:59.253Z,98878.34
2023-10-26T22:43:02.730Z,98881.00
2023-10-26T22:45:04.355Z,98889.09
2023-10-26T22:47:06.011Z,98884.63
2023-10-26T22:49:07.588Z,98895.22
2023-10-26T22:51:09.083Z,98897.19
2023-10-26T22:53:10.822Z,98892.72
2023-10-26T22:55:12.419Z,98898.16
2023-10-26T22:57:14.194Z,98909.59
2023-10-26T22:59:15.671Z,98905.28
2023-10-26T23:01:17.274Z,98903.47
2023-10-26T23:03:18.745Z,98899.97
2023-10-26T23:05:20.337Z,98896.50
2023-10-26T23:07:21.975Z,98908.88
2023-10-26T23:09:23.607Z,98911.53
2023-10-26T23:11:25.177Z,98904.59
2023-10-26T23:13:27.074Z,98893.13
2023-10-26T23:15:28.828Z,98905.56
2023-10-26T23:17:30.474Z,98901.06
2023-10-26T23:19:32.020Z,98906.38
2023-10-26T23:21:33.755Z,98905.56
2023-10-26T23:23:39.531Z,98915.31
2023-10-26T23:25:42.524Z,98904.69
2023-10-26T23:27:44.241Z,98906.53
2023-10-26T23:29:45.799Z,98913.63
2023-10-26T23:31:47.425Z,98909.31
2023-10-26T23:33:49.354Z,98919.91
2023-10-26T23:35:51.028Z,98914.63
2023-10-26T23:37:52.857Z,98923.41
2023-10-26T23:39:54.393Z,98925.22
2023-10-26T23:41:56.072Z,98921.72
2023-10-26T23:43:57.531Z,98921.72
2023-10-26T23:45:59.382Z,98928.84
2023-10-26T23:48:01.124Z,98925.34
2023-10-26T23:50:02.782Z,98935.13
2023-10-26T23:52:04.464Z,98941.25
2023-10-26T23:54:06.125Z,98946.69
2023-10-26T23:56:07.763Z,98941.25
2023-10-26T23:58:09.506Z,98943.06
